Time;durP1;ratioP1;P1;durP2;ratioP2;P2;SDS_P1;SDS_P2;PMS_P1;PMS_P2;Temp;Humidity;BMP_temperature;BMP_pressure;BME280_temperature;BME280_humidity;BME280_pressure;Samples;Min_cycle;Max_cycle;Signal;HPM_P1;HPM_P2
2022/12/13 00:00:13;;;;;;;37.28;14.02;;;;;;;;;;5133296;28;20038;-81
2022/12/13 00:02:43;;;;;;;35.95;13.07;;;;;;;;;;5114910;28;20392;-82
2022/12/13 00:05:09;;;;;;;28.45;12.40;;;;;;;;;;5133165;28;20027;-82
2022/12/13 00:07:35;;;;;;;32.47;12.43;;;;;;;;;;5133318;28;20023;-82
2022/12/13 00:10:01;;;;;;;33.00;13.38;;;;;;;;;;5133023;28;20015;-81
2022/12/13 00:12:27;;;;;;;32.58;13.02;;;;;;;;;;5114729;28;20019;-82
2022/12/13 00:14:53;;;;;;;31.77;14.18;;;;;;;;;;5132955;28;20394;-81
2022/12/13 00:17:19;;;;;;;32.20;12.18;;;;;;;;;;5133009;28;20175;-82
2022/12/13 00:19:49;;;;;;;35.85;12.55;;;;;;;;;;5133026;28;20032;-82
2022/12/13 00:22:18;;;;;;;30.27;12.95;;;;;;;;;;5132710;28;20065;-82
2022/12/13 00:24:44;;;;;;;35.83;12.77;;;;;;;;;;5114064;28;20046;-82
2022/12/13 00:27:10;;;;;;;30.70;12.88;;;;;;;;;;5132805;28;20098;-81
2022/12/13 00:29:36;;;;;;;33.25;12.27;;;;;;;;;;5132789;28;20019;-82
2022/12/13 00:32:02;;;;;;;28.27;12.10;;;;;;;;;;5132644;28;20019;-82
2022/12/13 00:34:29;;;;;;;35.40;13.30;;;;;;;;;;5132816;28;20062;-82
2022/12/13 00:36:57;;;;;;;32.40;13.50;;;;;;;;;;5133783;27;20023;-81
2022/12/13 00:39:23;;;;;;;36.72;14.00;;;;;;;;;;5135037;27;20417;-82
2022/12/13 00:41:49;;;;;;;35.72;13.25;;;;;;;;;;5134851;27;20492;-81
2022/12/13 00:44:17;;;;;;;32.95;13.18;;;;;;;;;;5136172;27;20442;-82
2022/12/13 00:46:43;;;;;;;37.42;13.35;;;;;;;;;;5136292;27;20020;-82
2022/12/13 00:49:10;;;;;;;30.38;12.13;;;;;;;;;;5136083;27;20019;-81
2022/12/13 00:51:36;;;;;;;34.85;13.52;;;;;;;;;;5136207;27;20031;-82
2022/12/13 00:54:02;;;;;;;30.08;12.85;;;;;;;;;;5136052;27;20035;-81
2022/12/13 00:56:30;;;;;;;37.15;13.93;;;;;;;;;;5136097;27;20038;-82
2022/12/13 00:58:56;;;;;;;31.50;13.75;;;;;;;;;;5135983;27;20027;-81
2022/12/13 01:01:23;;;;;;;43.97;14.00;;;;;;;;;;5135868;27;20035;-81
2022/12/13 01:03:49;;;;;;;29.13;12.10;;;;;;;;;;5135849;27;20030;-82
2022/12/13 01:06:20;;;;;;;37.00;13.57;;;;;;;;;;5134489;27;20051;-82
2022/12/13 01:08:47;;;;;;;32.53;13.48;;;;;;;;;;5135916;27;20102;-82
2022/12/13 01:11:13;;;;;;;34.38;12.20;;;;;;;;;;5134410;27;20030;-82
2022/12/13 01:13:39;;;;;;;30.15;12.73;;;;;;;;;;5134272;27;20038;-82
2022/12/13 01:16:07;;;;;;;31.48;13.13;;;;;;;;;;5117361;27;20023;-82
2022/12/13 01:18:33;;;;;;;32.42;12.55;;;;;;;;;;5135751;27;20092;-82
2022/12/13 01:21:01;;;;;;;32.67;13.00;;;;;;;;;;5117235;27;20476;-81
2022/12/13 01:23:27;;;;;;;35.72;14.40;;;;;;;;;;5135537;27;20027;-81
2022/12/13 01:25:53;;;;;;;32.55;13.48;;;;;;;;;;5135468;27;20398;-81
2022/12/13 01:28:19;;;;;;;34.65;12.48;;;;;;;;;;5135645;27;20492;-82
2022/12/13 01:30:52;;;;;;;31.25;12.85;;;;;;;;;;5135580;27;20197;-81
2022/12/13 01:33:18;;;;;;;34.63;13.15;;;;;;;;;;5135682;27;20419;-81
2022/12/13 01:35:44;;;;;;;32.42;12.02;;;;;;;;;;5135142;27;20518;-80
2022/12/13 01:38:10;;;;;;;37.00;12.70;;;;;;;;;;5117093;27;20488;-81
2022/12/13 01:40:42;;;;;;;34.92;12.85;;;;;;;;;;5135106;27;20027;-81
2022/12/13 01:43:11;;;;;;;32.20;12.88;;;;;;;;;;5135086;27;20049;-81
2022/12/13 01:45:37;;;;;;;38.30;14.02;;;;;;;;;;5135210;27;20015;-82
2022/12/13 01:48:05;;;;;;;31.35;12.95;;;;;;;;;;5135005;27;20019;-82
2022/12/13 01:50:34;;;;;;;32.15;13.15;;;;;;;;;;5134994;27;20053;-81
2022/12/13 01:53:01;;;;;;;35.30;13.75;;;;;;;;;;5135315;27;20110;-81
2022/12/13 01:55:29;;;;;;;34.30;13.23;;;;;;;;;;5134890;27;20031;-81
2022/12/13 01:57:57;;;;;;;38.33;14.20;;;;;;;;;;5133446;27;20020;-81
2022/12/13 02:00:25;;;;;;;34.63;13.23;;;;;;;;;;5133398;27;20425;-82
2022/12/13 02:02:52;;;;;;;34.35;13.70;;;;;;;;;;5134667;27;20026;-81
2022/12/13 02:05:30;;;;;;;33.85;12.50;;;;;;;;;;5134656;27;20068;-81
2022/12/13 02:07:57;;;;;;;39.03;12.82;;;;;;;;;;5133274;27;20023;-81
2022/12/13 02:10:23;;;;;;;35.97;14.02;;;;;;;;;;5134580;27;20086;-81
2022/12/13 02:12:49;;;;;;;35.47;13.43;;;;;;;;;;5134435;27;20023;-81
2022/12/13 02:15:17;;;;;;;38.35;14.13;;;;;;;;;;5116199;27;20094;-81
2022/12/13 02:18:00;;;;;;;32.85;13.18;;;;;;;;;;5134333;27;20023;-81
2022/12/13 02:20:42;;;;;;;30.58;13.40;;;;;;;;;;5134291;27;20023;-81
2022/12/13 02:23:20;;;;;;;32.25;13.85;;;;;;;;;;5134761;27;20450;-81
2022/12/13 02:25:49;;;;;;;35.72;13.48;;;;;;;;;;5134136;27;20398;-81
2022/12/13 02:28:32;;;;;;;39.20;13.93;;;;;;;;;;5133971;27;20038;-80
2022/12/13 02:31:17;;;;;;;32.65;13.82;;;;;;;;;;5132716;27;20105;-81
2022/12/13 02:34:05;;;;;;;33.88;13.95;;;;;;;;;;5133972;27;20052;-81
2022/12/13 02:36:49;;;;;;;35.63;13.82;;;;;;;;;;5133639;27;20030;-81
2022/12/13 02:39:21;;;;;;;35.45;13.75;;;;;;;;;;5134088;27;20027;-81
2022/12/13 02:41:53;;;;;;;40.25;13.05;;;;;;;;;;5115505;27;20438;-81
2022/12/13 02:44:20;;;;;;;38.90;14.80;;;;;;;;;;5133829;27;20106;-81
2022/12/13 02:46:51;;;;;;;32.67;12.82;;;;;;;;;;5133912;27;20020;-81
2022/12/13 02:49:18;;;;;;;40.70;13.68;;;;;;;;;;5133851;27;20098;-81
2022/12/13 02:51:44;;;;;;;33.28;12.60;;;;;;;;;;5115719;27;20097;-81
2022/12/13 02:54:11;;;;;;;36.25;14.05;;;;;;;;;;5115292;27;20023;-81
2022/12/13 02:56:37;;;;;;;33.20;13.50;;;;;;;;;;5133823;27;20151;-81
2022/12/13 02:59:08;;;;;;;30.42;13.63;;;;;;;;;;5133083;27;20020;-81
2022/12/13 03:01:37;;;;;;;33.10;13.38;;;;;;;;;;5133572;27;20113;-81
2022/12/13 03:04:03;;;;;;;35.55;13.07;;;;;;;;;;5133566;27;20066;-81
2022/12/13 03:06:42;;;;;;;28.95;12.77;;;;;;;;;;5133532;27;20045;-81
2022/12/13 03:09:23;;;;;;;31.35;13.25;;;;;;;;;;5133455;27;20015;-81
2022/12/13 03:14:39;;;;;;;33.55;14.30;;;;;;;;;;5133563;27;20034;-81
2022/12/13 03:17:06;;;;;;;36.08;14.18;;;;;;;;;;5133360;27;20019;-82
2022/12/13 03:19:33;;;;;;;32.35;13.23;;;;;;;;;;5133418;27;20027;-81
2022/12/13 03:21:59;;;;;;;36.58;14.10;;;;;;;;;;5097948;28;20114;-81
2022/12/13 03:24:25;;;;;;;43.92;14.35;;;;;;;;;;5114624;28;20499;-82
2022/12/13 03:26:51;;;;;;;38.95;14.75;;;;;;;;;;5114823;28;20407;-81
2022/12/13 03:29:18;;;;;;;38.80;13.55;;;;;;;;;;5133233;28;20373;-81
2022/12/13 03:31:45;;;;;;;35.47;13.13;;;;;;;;;;5114772;28;20020;-81
2022/12/13 03:34:11;;;;;;;37.13;14.20;;;;;;;;;;5133420;28;20382;-82
2022/12/13 03:36:37;;;;;;;33.47;13.13;;;;;;;;;;5114792;28;20388;-82
2022/12/13 03:39:03;;;;;;;33.95;13.68;;;;;;;;;;5133131;28;20051;-81
2022/12/13 03:41:32;;;;;;;37.40;13.88;;;;;;;;;;5133144;28;20072;-81
2022/12/13 03:43:59;;;;;;;34.28;13.43;;;;;;;;;;5133290;28;20026;-82
2022/12/13 03:46:25;;;;;;;31.00;12.07;;;;;;;;;;5133164;28;20427;-81
2022/12/13 03:48:51;;;;;;;30.85;13.85;;;;;;;;;;5133140;28;20047;-81
2022/12/13 03:51:17;;;;;;;42.22;14.60;;;;;;;;;;5132881;28;20027;-81
2022/12/13 03:53:44;;;;;;;31.40;13.48;;;;;;;;;;5132944;28;20020;-82
2022/12/13 03:56:10;;;;;;;33.92;14.18;;;;;;;;;;5111140;28;20034;-81
2022/12/13 03:58:36;;;;;;;39.72;14.40;;;;;;;;;;5112515;28;20028;-82
2022/12/13 04:01:02;;;;;;;38.35;13.40;;;;;;;;;;5111245;28;20111;-81
2022/12/13 04:03:28;;;;;;;33.13;13.93;;;;;;;;;;5112423;28;20027;-81
2022/12/13 04:05:54;;;;;;;35.58;13.07;;;;;;;;;;5112353;28;20023;-81
2022/12/13 04:08:20;;;;;;;32.47;12.98;;;;;;;;;;5111006;28;20367;-81
2022/12/13 04:10:46;;;;;;;33.60;13.38;;;;;;;;;;5112355;28;20386;-81
2022/12/13 04:15:57;;;;;;;39.50;14.35;;;;;;;;;;5116457;28;20105;-81
2022/12/13 04:18:23;;;;;;;36.92;14.02;;;;;;;;;;5116224;28;20024;-81
2022/12/13 04:20:49;;;;;;;30.08;13.02;;;;;;;;;;5131307;27;20073;-81
2022/12/13 04:23:15;;;;;;;33.58;13.60;;;;;;;;;;5118073;27;20501;-81
2022/12/13 04:25:41;;;;;;;37.83;13.73;;;;;;;;;;5136293;27;20091;-81
2022/12/13 04:28:07;;;;;;;35.28;14.90;;;;;;;;;;5136606;27;20020;-81
2022/12/13 04:30:34;;;;;;;33.50;14.05;;;;;;;;;;5118089;27;20027;-82
2022/12/13 04:33:00;;;;;;;34.47;13.20;;;;;;;;;;5136313;27;20110;-81
2022/12/13 04:35:26;;;;;;;31.60;13.75;;;;;;;;;;5136481;27;20028;-81
2022/12/13 04:37:52;;;;;;;33.47;13.30;;;;;;;;;;5135950;27;20026;-82
2022/12/13 04:40:18;;;;;;;34.63;13.43;;;;;;;;;;5134855;27;20019;-81
2022/12/13 04:42:44;;;;;;;34.95;13.50;;;;;;;;;;5136492;27;20027;-81
2022/12/13 04:45:14;;;;;;;30.20;13.15;;;;;;;;;;5136185;27;20039;-81
2022/12/13 04:47:41;;;;;;;29.67;12.95;;;;;;;;;;5136203;27;20106;-81
2022/12/13 04:50:07;;;;;;;36.95;13.88;;;;;;;;;;5136228;27;20094;-81
2022/12/13 04:52:33;;;;;;;33.47;14.10;;;;;;;;;;5136541;27;20031;-81
2022/12/13 04:54:59;;;;;;;38.85;14.13;;;;;;;;;;5136171;27;20473;-81
2022/12/13 04:57:25;;;;;;;32.25;13.60;;;;;;;;;;5134641;27;20119;-81
2022/12/13 04:59:51;;;;;;;34.03;13.05;;;;;;;;;;5135917;27;20460;-81
2022/12/13 05:02:17;;;;;;;42.47;14.57;;;;;;;;;;5135852;27;20461;-81
2022/12/13 05:04:44;;;;;;;44.22;15.57;;;;;;;;;;5134614;27;20454;-81
2022/12/13 05:07:11;;;;;;;37.45;15.27;;;;;;;;;;5134306;27;20054;-81
2022/12/13 05:09:37;;;;;;;42.95;14.93;;;;;;;;;;5135532;27;20050;-81
2022/12/13 05:12:03;;;;;;;39.95;14.52;;;;;;;;;;5135617;27;20035;-82
2022/12/13 05:14:32;;;;;;;39.17;13.90;;;;;;;;;;5135477;27;20058;-81
2022/12/13 05:16:58;;;;;;;36.65;14.10;;;;;;;;;;5135496;27;20494;-81
2022/12/13 05:19:25;;;;;;;36.83;15.30;;;;;;;;;;5135503;27;20041;-81
2022/12/13 05:21:51;;;;;;;38.00;13.77;;;;;;;;;;5135033;27;20034;-81
2022/12/13 05:24:17;;;;;;;32.08;13.82;;;;;;;;;;5135062;27;20110;-81
2022/12/13 05:26:43;;;;;;;36.40;13.75;;;;;;;;;;5135309;27;20382;-81
2022/12/13 05:29:09;;;;;;;37.40;15.13;;;;;;;;;;5134039;27;20098;-81
2022/12/13 05:31:35;;;;;;;38.42;15.48;;;;;;;;;;5135332;27;20019;-81
2022/12/13 05:34:01;;;;;;;33.65;15.43;;;;;;;;;;5135157;27;20026;-81
2022/12/13 05:36:27;;;;;;;39.53;14.77;;;;;;;;;;5118484;27;20030;-81
2022/12/13 05:38:53;;;;;;;38.97;16.40;;;;;;;;;;5135042;27;20106;-81
2022/12/13 05:41:23;;;;;;;38.25;15.90;;;;;;;;;;5134831;27;20023;-81
2022/12/13 05:43:49;;;;;;;38.33;15.35;;;;;;;;;;5134855;27;20475;-81
2022/12/13 05:46:15;;;;;;;35.95;14.73;;;;;;;;;;5134982;27;20023;-81
2022/12/13 05:48:41;;;;;;;35.45;14.73;;;;;;;;;;5116425;27;20023;-81
2022/12/13 05:51:08;;;;;;;41.55;14.52;;;;;;;;;;5134663;27;20019;-81
2022/12/13 05:53:34;;;;;;;35.28;14.23;;;;;;;;;;5134489;27;20027;-81
2022/12/13 05:56:01;;;;;;;33.85;14.10;;;;;;;;;;5134497;27;20076;-81
2022/12/13 05:58:27;;;;;;;37.92;14.38;;;;;;;;;;5116061;27;20023;-81
2022/12/13 06:00:53;;;;;;;42.92;15.10;;;;;;;;;;5134684;27;20092;-81
2022/12/13 06:03:19;;;;;;;40.15;14.68;;;;;;;;;;5134368;27;20027;-81
2022/12/13 06:05:45;;;;;;;40.33;15.75;;;;;;;;;;5116104;27;20038;-81
2022/12/13 06:08:11;;;;;;;46.20;16.67;;;;;;;;;;5134170;27;20038;-81
2022/12/13 06:10:37;;;;;;;41.50;16.23;;;;;;;;;;5134371;27;20415;-81
2022/12/13 06:13:04;;;;;;;41.22;15.85;;;;;;;;;;5134214;27;20098;-81
2022/12/13 06:15:31;;;;;;;36.97;13.93;;;;;;;;;;5111997;28;20020;-81
2022/12/13 06:17:59;;;;;;;40.05;14.80;;;;;;;;;;5113638;28;20026;-81
2022/12/13 06:20:25;;;;;;;33.20;14.32;;;;;;;;;;5113563;28;20026;-81
2022/12/13 06:22:52;;;;;;;40.83;14.73;;;;;;;;;;5112373;28;20020;-80
2022/12/13 06:25:18;;;;;;;37.42;14.85;;;;;;;;;;5115594;27;20093;-81
2022/12/13 06:27:44;;;;;;;43.85;15.05;;;;;;;;;;5133829;27;20027;-81
2022/12/13 06:30:11;;;;;;;34.42;13.48;;;;;;;;;;5133794;27;20110;-81
2022/12/13 06:32:37;;;;;;;37.20;14.77;;;;;;;;;;5133820;27;20016;-81
2022/12/13 06:35:03;;;;;;;37.45;14.73;;;;;;;;;;5133016;27;20042;-81
2022/12/13 06:37:29;;;;;;;34.45;14.30;;;;;;;;;;5133868;27;20166;-81
2022/12/13 06:39:55;;;;;;;35.58;14.15;;;;;;;;;;5133599;27;20023;-81
2022/12/13 06:42:21;;;;;;;33.10;14.95;;;;;;;;;;5133757;27;20031;-81
2022/12/13 06:44:50;;;;;;;40.17;14.27;;;;;;;;;;5133697;27;20126;-81
2022/12/13 06:47:16;;;;;;;49.05;15.15;;;;;;;;;;5133605;27;20168;-81
2022/12/13 06:49:42;;;;;;;51.88;16.42;;;;;;;;;;5098522;27;20431;-81
2022/12/13 06:52:11;;;;;;;43.15;14.88;;;;;;;;;;5133693;27;20058;-81
2022/12/13 06:54:37;;;;;;;44.28;15.60;;;;;;;;;;5133546;27;20019;-81
2022/12/13 06:57:03;;;;;;;47.72;16.73;;;;;;;;;;5133265;27;20102;-81
2022/12/13 06:59:29;;;;;;;47.20;17.90;;;;;;;;;;5114967;27;20046;-80
2022/12/13 07:01:55;;;;;;;47.00;16.52;;;;;;;;;;5133464;27;20031;-81
2022/12/13 07:04:21;;;;;;;44.53;17.35;;;;;;;;;;5133140;27;20028;-81
2022/12/13 07:06:47;;;;;;;48.28;17.42;;;;;;;;;;5114776;27;20465;-81
2022/12/13 07:09:13;;;;;;;47.20;16.38;;;;;;;;;;5114642;27;20374;-81
2022/12/13 07:11:39;;;;;;;45.67;16.42;;;;;;;;;;5114716;27;20383;-81
2022/12/13 07:14:06;;;;;;;40.20;15.93;;;;;;;;;;5133228;27;20038;-81
2022/12/13 07:16:32;;;;;;;43.72;16.88;;;;;;;;;;5133318;27;20503;-81
2022/12/13 07:18:59;;;;;;;42.97;16.40;;;;;;;;;;5131461;27;20370;-81
2022/12/13 07:21:26;;;;;;;40.55;15.05;;;;;;;;;;5112442;28;20474;-81
2022/12/13 07:23:53;;;;;;;54.17;15.27;;;;;;;;;;5112642;28;20024;-81
2022/12/13 07:26:19;;;;;;;41.80;15.80;;;;;;;;;;5112423;28;20096;-81
2022/12/13 07:28:45;;;;;;;41.30;15.35;;;;;;;;;;5112348;28;20027;-81
2022/12/13 07:31:12;;;;;;;47.03;16.13;;;;;;;;;;5094325;28;20050;-81
2022/12/13 07:33:38;;;;;;;43.70;15.02;;;;;;;;;;5112377;28;20385;-81
2022/12/13 07:36:11;;;;;;;45.40;15.93;;;;;;;;;;5099332;28;20027;-81
2022/12/13 07:38:37;;;;;;;41.83;15.10;;;;;;;;;;5132596;27;20031;-81
2022/12/13 07:41:04;;;;;;;42.85;16.33;;;;;;;;;;5132986;27;20019;-81
2022/12/13 07:43:30;;;;;;;56.50;18.00;;;;;;;;;;5114264;28;20023;-81
2022/12/13 07:46:00;;;;;;;61.42;16.52;;;;;;;;;;5134592;27;20091;-81
2022/12/13 07:48:26;;;;;;;63.42;20.88;;;;;;;;;;5118823;27;20030;-80
2022/12/13 07:50:53;;;;;;;64.50;20.40;;;;;;;;;;5136970;27;20480;-81
2022/12/13 07:53:20;;;;;;;63.53;22.63;;;;;;;;;;5137008;27;20023;-81
2022/12/13 07:55:46;;;;;;;60.15;19.63;;;;;;;;;;5137165;27;20083;-82
2022/12/13 07:58:14;;;;;;;60.63;19.40;;;;;;;;;;5134324;27;20106;-81
2022/12/13 08:00:41;;;;;;;53.55;20.13;;;;;;;;;;5118227;27;20056;-81
2022/12/13 08:03:07;;;;;;;60.70;20.38;;;;;;;;;;5134697;27;20411;-80
2022/12/13 08:05:34;;;;;;;54.13;20.17;;;;;;;;;;5134899;27;20027;-81
2022/12/13 08:08:00;;;;;;;60.28;21.40;;;;;;;;;;5135380;27;20484;-81
2022/12/13 08:10:27;;;;;;;48.90;19.75;;;;;;;;;;5125688;27;20027;-81
2022/12/13 08:12:53;;;;;;;66.22;21.17;;;;;;;;;;5128362;27;20020;-81
2022/12/13 08:15:20;;;;;;;72.13;22.23;;;;;;;;;;5122984;27;20488;-81
2022/12/13 08:17:46;;;;;;;55.15;21.27;;;;;;;;;;5125779;27;20114;-81
2022/12/13 08:20:12;;;;;;;61.42;21.30;;;;;;;;;;5136469;27;20524;-81
2022/12/13 08:22:39;;;;;;;60.45;22.35;;;;;;;;;;5134857;27;20045;-81
2022/12/13 08:25:05;;;;;;;72.05;23.83;;;;;;;;;;5125930;27;20071;-82
2022/12/13 08:27:31;;;;;;;75.43;24.67;;;;;;;;;;5136122;27;20027;-82
2022/12/13 08:29:58;;;;;;;74.57;25.27;;;;;;;;;;5133064;27;20028;-81
2022/12/13 08:32:24;;;;;;;68.47;23.52;;;;;;;;;;5124627;27;20106;-81
2022/12/13 08:34:50;;;;;;;60.80;19.45;;;;;;;;;;5110110;27;20027;-82
2022/12/13 08:37:16;;;;;;;62.00;19.67;;;;;;;;;;5135763;27;20163;-81
2022/12/13 08:39:43;;;;;;;60.08;19.58;;;;;;;;;;5135974;27;20043;-81
2022/12/13 08:42:14;;;;;;;49.88;17.83;;;;;;;;;;5134712;27;20052;-81
2022/12/13 08:44:40;;;;;;;51.75;17.90;;;;;;;;;;5128563;27;20023;-81
2022/12/13 08:47:06;;;;;;;53.75;17.17;;;;;;;;;;5113603;27;20026;-81
2022/12/13 08:49:32;;;;;;;60.80;18.15;;;;;;;;;;5116009;27;20107;-80
2022/12/13 08:51:58;;;;;;;68.05;19.92;;;;;;;;;;5104691;28;20114;-81
2022/12/13 08:54:24;;;;;;;59.50;18.80;;;;;;;;;;5116221;27;20039;-81
2022/12/13 08:56:50;;;;;;;53.70;18.98;;;;;;;;;;5132825;27;20412;-82
2022/12/13 08:59:17;;;;;;;55.53;19.45;;;;;;;;;;5114946;28;20055;-81
2022/12/13 09:01:43;;;;;;;51.95;18.35;;;;;;;;;;5115182;28;20034;-81
2022/12/13 09:04:09;;;;;;;67.53;20.08;;;;;;;;;;5115176;28;20031;-81
2022/12/13 09:06:36;;;;;;;62.78;18.85;;;;;;;;;;5125578;27;20020;-81
2022/12/13 09:09:02;;;;;;;58.67;19.60;;;;;;;;;;5135555;27;20350;-81
2022/12/13 09:11:28;;;;;;;61.20;20.42;;;;;;;;;;5135667;27;20051;-81
2022/12/13 09:13:54;;;;;;;61.20;19.35;;;;;;;;;;5133377;27;20027;-81
2022/12/13 09:16:22;;;;;;;52.85;20.65;;;;;;;;;;5129718;27;20039;-81
2022/12/13 09:18:49;;;;;;;62.60;20.88;;;;;;;;;;5135442;27;20456;-82
2022/12/13 09:21:15;;;;;;;62.90;21.58;;;;;;;;;;5133060;27;20065;-81
2022/12/13 09:23:41;;;;;;;56.00;21.90;;;;;;;;;;5135072;27;20023;-81
2022/12/13 09:26:08;;;;;;;66.00;21.58;;;;;;;;;;5134973;27;20458;-81
2022/12/13 09:28:35;;;;;;;58.72;22.20;;;;;;;;;;5135172;27;20102;-81
2022/12/13 09:31:06;;;;;;;61.33;22.45;;;;;;;;;;5134915;27;20019;-81
2022/12/13 09:33:32;;;;;;;65.78;23.40;;;;;;;;;;5134841;27;20026;-82
2022/12/13 09:35:58;;;;;;;72.97;21.33;;;;;;;;;;5134304;27;20074;-81
2022/12/13 09:38:24;;;;;;;69.78;23.98;;;;;;;;;;5110128;27;20366;-80
2022/12/13 09:40:52;;;;;;;67.70;24.23;;;;;;;;;;5121322;27;20035;-81
2022/12/13 09:43:24;;;;;;;68.05;24.75;;;;;;;;;;5114282;28;20068;-81
2022/12/13 09:45:50;;;;;;;62.40;23.70;;;;;;;;;;5114147;28;20049;-81
2022/12/13 09:48:18;;;;;;;67.13;24.33;;;;;;;;;;5096187;28;20118;-81
2022/12/13 09:50:44;;;;;;;64.20;24.42;;;;;;;;;;5123038;27;20027;-81
2022/12/13 09:53:11;;;;;;;68.88;24.63;;;;;;;;;;5115547;27;20557;-80
2022/12/13 09:55:38;;;;;;;67.25;25.90;;;;;;;;;;5114091;28;20069;-80
2022/12/13 09:58:06;;;;;;;69.80;27.80;;;;;;;;;;5096123;28;20040;-80
2022/12/13 10:00:35;;;;;;;87.03;29.60;;;;;;;;;;5113836;28;20066;-81
2022/12/13 10:03:01;;;;;;;75.32;29.10;;;;;;;;;;5113851;28;20106;-80
2022/12/13 10:05:30;;;;;;;92.55;30.83;;;;;;;;;;5113832;28;20065;-80
2022/12/13 10:07:58;;;;;;;79.15;28.80;;;;;;;;;;5133476;27;20019;-81
2022/12/13 10:10:24;;;;;;;75.80;28.27;;;;;;;;;;5134359;27;20092;-81
2022/12/13 10:12:54;;;;;;;90.88;30.92;;;;;;;;;;5134624;27;20122;-81
2022/12/13 10:15:20;;;;;;;86.07;32.88;;;;;;;;;;5120610;27;20027;-79
2022/12/13 10:17:48;;;;;;;87.55;34.72;;;;;;;;;;5078444;28;20027;-80
2022/12/13 10:20:18;;;;;;;77.22;30.48;;;;;;;;;;5104168;27;20058;-80
2022/12/13 10:22:45;;;;;;;84.15;30.27;;;;;;;;;;5134147;27;20031;-81
2022/12/13 10:25:11;;;;;;;81.88;31.33;;;;;;;;;;5132631;27;20139;-81
2022/12/13 10:27:39;;;;;;;77.13;30.75;;;;;;;;;;5134038;27;20033;-81
2022/12/13 10:30:11;;;;;;;82.60;32.47;;;;;;;;;;5132741;27;20023;-81
2022/12/13 10:32:53;;;;;;;89.43;34.20;;;;;;;;;;5112050;28;20114;-81
2022/12/13 10:35:19;;;;;;;;;;;;;;;;;;5113760;28;20122;-81
2022/12/13 10:37:45;;;;;;;;;;;;;;;;;;5115854;27;19954;-82
2022/12/13 10:40:11;;;;;;;;;;;;;;;;;;5115792;27;19908;-82
2022/12/13 10:42:37;;;;;;;;;;;;;;;;;;5134481;27;20270;-81
2022/12/13 10:45:03;;;;;;;;;;;;;;;;;;5115887;27;20322;-81
2022/12/13 10:47:29;;;;;;;;;;;;;;;;;;5130251;27;19915;-81
2022/12/13 10:49:56;;;;;;;;;;;;;;;;;;5113758;28;19904;-82
2022/12/13 10:52:22;;;;;;;;;;;;;;;;;;5095169;28;20386;-83
2022/12/13 10:54:48;;;;;;;;;;;;;;;;;;5113608;28;20053;-82
2022/12/13 10:57:15;;;;;;;;;;;;;;;;;;5113483;28;19907;-83
2022/12/13 10:59:41;;;;;;;;;;;;;;;;;;5113646;28;19904;-78
2022/12/13 11:02:07;;;;;;;;;;;;;;;;;;5095258;28;19949;-83
2022/12/13 11:04:33;;;;;;;;;;;;;;;;;;5113492;28;19954;-83
2022/12/13 11:06:59;;;;;;;;;;;;;;;;;;5095133;28;19929;-81
2022/12/13 11:09:25;;;;;;;;;;;;;;;;;;5113378;28;20016;-82
2022/12/13 11:11:51;;;;;;;;;;;;;;;;;;5095279;28;20051;-82
2022/12/13 11:14:17;;;;;;;;;;;;;;;;;;5118846;27;20001;-83
2022/12/13 11:16:43;;;;;;;;;;;;;;;;;;5127485;27;20490;-83
2022/12/13 11:19:08;;;;;;;;;;;;;;;;;;5105986;28;20346;-83
2022/12/13 11:21:34;;;;;;;;;;;;;;;;;;5114606;28;19916;-83
2022/12/13 11:24:00;;;;;;;;;;;;;;;;;;5114576;28;19907;-83
2022/12/13 11:26:27;;;;;;;;;;;;;;;;;;5122864;27;19919;-82
2022/12/13 11:28:53;;;;;;;;;;;;;;;;;;5097263;28;19918;-83
2022/12/13 11:31:19;;;;;;;;;;;;;;;;;;5112956;28;20294;-82
2022/12/13 11:33:45;;;;;;;;;;;;;;;;;;5131301;28;19903;-82
2022/12/13 11:36:11;;;;;;;;;;;;;;;;;;5101533;28;20374;-82
2022/12/13 11:38:38;;;;;;;;;;;;;;;;;;5111339;28;20350;-83
2022/12/13 11:41:06;;;;;;;;;;;;;;;;;;5112960;28;19984;-84
2022/12/13 11:43:32;;;;;;;;;;;;;;;;;;5112747;28;19926;-85
2022/12/13 11:45:58;;;;;;;;;;;;;;;;;;5112907;28;19903;-84
2022/12/13 11:48:24;;;;;;;;;;;;;;;;;;5112719;28;19904;-82
2022/12/13 11:50:50;;;;;;;;;;;;;;;;;;5114651;28;19922;-84
2022/12/13 11:53:17;;;;;;;;;;;;;;;;;;5112771;28;19957;-82
2022/12/13 11:55:43;;;;;;;;;;;;;;;;;;5112596;28;19903;-83
2022/12/13 11:58:09;;;;;;;;;;;;;;;;;;5112829;28;19914;-83
2022/12/13 12:00:35;;;;;;;;;;;;;;;;;;5094501;28;19904;-82
2022/12/13 12:03:01;;;;;;;;;;;;;;;;;;5095040;28;19991;-83
2022/12/13 12:05:27;;;;;;;;;;;;;;;;;;5113135;28;19915;-83
2022/12/13 12:07:53;;;;;;;;;;;;;;;;;;5112848;28;19903;-83
2022/12/13 12:10:19;;;;;;;;;;;;;;;;;;5113153;28;19907;-83
2022/12/13 12:12:45;;;;;;;;;;;;;;;;;;5112913;28;19976;-83
2022/12/13 12:15:11;;;;;;;;;;;;;;;;;;5126097;28;19904;-84
2022/12/13 12:17:37;;;;;;;;;;;;;;;;;;5114802;28;19903;-83
2022/12/13 12:20:03;;;;;;;;;;;;;;;;;;5123174;28;19911;-83
2022/12/13 12:22:29;;;;;;;;;;;;;;;;;;5126555;28;20377;-84
2022/12/13 12:24:55;;;;;;;;;;;;;;;;;;5133164;28;20015;-83
2022/12/13 12:27:22;;;;;;;;;;;;;;;;;;5114951;28;19919;-84
2022/12/13 12:29:48;;;;;;;;;;;;;;;;;;5114928;28;20270;-84
2022/12/13 12:32:13;;;;;;;;;;;;;;;;;;5133895;27;19903;-84
2022/12/13 12:34:40;;;;;;;;;;;;;;;;;;5137018;27;19911;-84
2022/12/13 12:37:06;;;;;;;;;;;;;;;;;;5117566;27;19914;-84
2022/12/13 12:39:35;;;;;;;;;;;;;;;;;;5137344;27;19904;-84
2022/12/13 12:42:01;;;;;;;;;;;;;;;;;;5136977;27;19903;-84
2022/12/13 12:44:27;;;;;;;;;;;;;;;;;;5136780;27;19907;-84
2022/12/13 12:46:53;;;;;;;;;;;;;;;;;;5118560;27;19910;-84
2022/12/13 12:49:19;;;;;;;;;;;;;;;;;;5137189;27;19914;-84
2022/12/13 12:51:45;;;;;;;;;;;;;;;;;;5136765;27;19911;-83
2022/12/13 12:54:11;;;;;;;;;;;;;;;;;;5118599;27;19929;-83
2022/12/13 12:56:37;;;;;;;;;;;;;;;;;;5117782;27;20382;-85
2022/12/13 12:59:03;;;;;;;;;;;;;;;;;;5136204;27;19908;-87
2022/12/13 13:01:29;;;;;;;;;;;;;;;;;;5117672;27;20257;-86
2022/12/13 13:03:55;;;;;;;;;;;;;;;;;;5132892;27;19934;-86
2022/12/13 13:06:21;;;;;;;;;;;;;;;;;;5136007;27;19908;-86
2022/12/13 13:08:47;;;;;;;;;;;;;;;;;;5117298;27;19998;-85
2022/12/13 13:11:13;;;;;;;;;;;;;;;;;;5127432;27;20330;-85
2022/12/13 13:13:39;;;;;;;;;;;;;;;;;;5115027;28;19949;-85
2022/12/13 13:16:06;;;;;;;;;;;;;;;;;;5133036;27;19907;-86
2022/12/13 13:18:32;;;;;;;;;;;;;;;;;;5126800;27;19904;-85
2022/12/13 13:20:58;;;;;;;;;;;;;;;;;;5134512;27;19915;-86
2022/12/13 13:23:24;;;;;;;;;;;;;;;;;;5133665;27;20013;-85
2022/12/13 13:25:50;;;;;;;;;;;;;;;;;;5135297;27;19904;-86
2022/12/13 13:28:16;;;;;;;;;;;;;;;;;;5135596;27;19911;-82
2022/12/13 13:30:42;;;;;;;;;;;;;;;;;;5101961;28;19912;-81
2022/12/13 13:33:08;;;;;;;;;;;;;;;;;;5096593;28;19904;-81
2022/12/13 13:35:35;;;;;;;;;;;;;;;;;;5117582;27;21710;-81
2022/12/13 13:38:01;;;;;;;;;;;;;;;;;;5109465;28;19956;-81
2022/12/13 13:40:27;;;;;;;;;;;;;;;;;;5124402;27;19907;-81
2022/12/13 13:42:53;;;;;;;;;;;;;;;;;;5135348;27;19904;-81
2022/12/13 13:45:19;;;;;;;;;;;;;;;;;;5127831;27;19951;-81
2022/12/13 13:47:45;;;;;;;;;;;;;;;;;;5118635;27;19908;-81
2022/12/13 13:50:11;;;;;;;;;;;;;;;;;;5112794;27;20352;-82
2022/12/13 13:52:37;;;;;;;;;;;;;;;;;;5104096;27;19939;-82
2022/12/13 13:55:03;;;;;;;;;;;;;;;;;;5100977;27;19998;-82
2022/12/13 13:57:29;;;;;;;;;;;;;;;;;;5134927;27;19903;-82
2022/12/13 13:59:55;;;;;;;;;;;;;;;;;;5134791;27;19915;-82
2022/12/13 14:02:21;;;;;;;;;;;;;;;;;;5114700;28;19908;-82
2022/12/13 14:04:47;;;;;;;;;;;;;;;;;;5096034;28;19958;-82
2022/12/13 14:07:13;;;;;;;;;;;;;;;;;;5114469;28;19904;-81
2022/12/13 14:09:38;;;;;;;;;;;;;;;;;;5109103;27;19976;-80
2022/12/13 14:12:04;;;;;;;;;;;;;;;;;;5116377;27;19903;-84
2022/12/13 14:14:31;;;;;;;;;;;;;;;;;;5112481;28;20472;-84
2022/12/13 14:16:57;;;;;;;;;;;;;;;;;;5117930;27;19977;-84
2022/12/13 14:19:23;;;;;;;;;;;;;;;;;;5134133;27;20365;-84
2022/12/13 14:21:49;;;;;;;;;;;;;;;;;;5133077;27;20505;-85
2022/12/13 14:24:15;;;;;;;;;;;;;;;;;;5134356;27;19950;-84
2022/12/13 14:26:41;;;;;;;;;;;;;;;;;;5133699;27;20279;-85
2022/12/13 14:29:07;;;;;;;;;;;;;;;;;;5133104;27;20329;-85
2022/12/13 14:31:33;;;;;;;;;;;;;;;;;;5133045;27;19948;-84
2022/12/13 14:33:59;;;;;;;;;;;;;;;;;;5134356;27;20311;-85
2022/12/13 14:36:25;;;;;;;;;;;;;;;;;;5132513;27;19930;-84
2022/12/13 14:38:51;;;;;;;;;;;;;;;;;;5133871;27;19960;-85
2022/12/13 14:41:18;;;;;;;;;;;;;;;;;;5132924;27;20038;-84
2022/12/13 14:43:44;;;;;;;;;;;;;;;;;;5134113;27;19911;-85
2022/12/13 14:46:10;;;;;;;;;;;;;;;;;;5134054;27;20345;-85
2022/12/13 14:48:36;;;;;;;;;;;;;;;;;;5133959;27;19910;-84
2022/12/13 14:51:03;;;;;;;;;;;;;;;;;;5132129;27;19914;-84
2022/12/13 14:53:29;;;;;;;;;;;;;;;;;;5133989;27;19943;-85
2022/12/13 14:55:55;;;;;;;;;;;;;;;;;;5114657;27;19988;-85
2022/12/13 14:58:21;;;;;;;;;;;;;;;;;;5103110;28;19907;-85
2022/12/13 15:00:47;;;;;;;;;;;;;;;;;;5094968;28;19908;-86